sensor_id;sensor_type;location;lat;lon;timestamp;temperature;humidity
36716;DHT22;22699;51.034;3.730;2023-05-10T00:01:27;14.10;99.90
36716;DHT22;22699;51.034;3.730;2023-05-10T00:03:57;14.20;99.90
36716;DHT22;22699;51.034;3.730;2023-05-10T00:06:22;14.20;99.90
36716;DHT22;22699;51.034;3.730;2023-05-10T00:08:49;14.30;99.90
36716;DHT22;22699;51.034;3.730;2023-05-10T00:11:19;14.30;99.90
36716;DHT22;22699;51.034;3.730;2023-05-10T00:13:45;14.30;99.90
36716;DHT22;22699;51.034;3.730;2023-05-10T00:16:13;14.30;99.90
36716;DHT22;22699;51.034;3.730;2023-05-10T00:18:39;14.10;99.90
36716;DHT22;22699;51.034;3.730;2023-05-10T00:21:05;14.20;99.90
36716;DHT22;22699;51.034;3.730;2023-05-10T00:23:31;14.30;99.90
36716;DHT22;22699;51.034;3.730;2023-05-10T00:25:58;14.20;99.90
36716;DHT22;22699;51.034;3.730;2023-05-10T00:28:27;14.20;99.90
36716;DHT22;22699;51.034;3.730;2023-05-10T00:30:59;14.20;99.90
36716;DHT22;22699;51.034;3.730;2023-05-10T00:33:28;14.10;99.90
36716;DHT22;22699;51.034;3.730;2023-05-10T00:35:54;14.00;99.90
36716;DHT22;22699;51.034;3.730;2023-05-10T00:38:22;14.00;99.90
36716;DHT22;22699;51.034;3.730;2023-05-10T00:40:52;13.90;99.90
36716;DHT22;22699;51.034;3.730;2023-05-10T00:43:18;13.90;99.90
36716;DHT22;22699;51.034;3.730;2023-05-10T00:45:44;13.90;99.90
36716;DHT22;22699;51.034;3.730;2023-05-10T00:48:10;13.90;99.90
36716;DHT22;22699;51.034;3.730;2023-05-10T00:50:40;13.90;99.90
36716;DHT22;22699;51.034;3.730;2023-05-10T00:53:06;13.90;99.90
36716;DHT22;22699;51.034;3.730;2023-05-10T00:55:34;13.90;99.90
36716;DHT22;22699;51.034;3.730;2023-05-10T00:58:02;13.90;99.90
36716;DHT22;22699;51.034;3.730;2023-05-10T01:00:28;14.00;99.90
36716;DHT22;22699;51.034;3.730;2023-05-10T01:02:57;13.90;99.90
36716;DHT22;22699;51.034;3.730;2023-05-10T01:05:23;13.80;99.90
36716;DHT22;22699;51.034;3.730;2023-05-10T01:07:48;13.90;99.90
36716;DHT22;22699;51.034;3.730;2023-05-10T01:10:20;13.90;99.90
36716;DHT22;22699;51.034;3.730;2023-05-10T01:12:46;13.90;99.90
36716;DHT22;22699;51.034;3.730;2023-05-10T01:15:13;14.00;99.90
36716;DHT22;22699;51.034;3.730;2023-05-10T01:17:44;13.90;99.90
36716;DHT22;22699;51.034;3.730;2023-05-10T01:20:12;13.90;99.90
36716;DHT22;22699;51.034;3.730;2023-05-10T01:28:39;14.00;99.90
36716;DHT22;22699;51.034;3.730;2023-05-10T01:34:16;13.90;99.90
36716;DHT22;22699;51.034;3.730;2023-05-10T01:36:51;14.10;99.90
36716;DHT22;22699;51.034;3.730;2023-05-10T01:39:24;14.10;99.90
36716;DHT22;22699;51.034;3.730;2023-05-10T01:44:58;14.20;99.90
36716;DHT22;22699;51.034;3.730;2023-05-10T01:47:40;14.10;99.90
36716;DHT22;22699;51.034;3.730;2023-05-10T01:50:18;14.10;99.90
36716;DHT22;22699;51.034;3.730;2023-05-10T01:52:58;14.20;99.90
36716;DHT22;22699;51.034;3.730;2023-05-10T01:55:30;14.00;99.90
36716;DHT22;22699;51.034;3.730;2023-05-10T01:58:09;14.10;99.90
36716;DHT22;22699;51.034;3.730;2023-05-10T02:00:44;14.20;99.90
36716;DHT22;22699;51.034;3.730;2023-05-10T02:03:15;14.20;99.90
36716;DHT22;22699;51.034;3.730;2023-05-10T02:05:46;14.00;99.90
36716;DHT22;22699;51.034;3.730;2023-05-10T02:08:15;14.20;99.90
36716;DHT22;22699;51.034;3.730;2023-05-10T02:10:46;14.10;99.90
36716;DHT22;22699;51.034;3.730;2023-05-10T02:13:16;14.00;99.90
36716;DHT22;22699;51.034;3.730;2023-05-10T02:15:51;14.20;99.90
36716;DHT22;22699;51.034;3.730;2023-05-10T02:18:18;14.20;99.90
36716;DHT22;22699;51.034;3.730;2023-05-10T02:20:52;14.20;99.90
36716;DHT22;22699;51.034;3.730;2023-05-10T02:23:20;14.20;99.90
36716;DHT22;22699;51.034;3.730;2023-05-10T02:25:48;14.20;99.90
36716;DHT22;22699;51.034;3.730;2023-05-10T02:28:18;14.20;99.90
36716;DHT22;22699;51.034;3.730;2023-05-10T02:30:45;14.20;99.90
36716;DHT22;22699;51.034;3.730;2023-05-10T02:33:14;14.20;99.90
36716;DHT22;22699;51.034;3.730;2023-05-10T02:35:43;14.40;99.90
36716;DHT22;22699;51.034;3.730;2023-05-10T02:38:20;14.50;99.90
36716;DHT22;22699;51.034;3.730;2023-05-10T02:40:49;14.50;99.90
36716;DHT22;22699;51.034;3.730;2023-05-10T02:43:17;14.60;99.90
36716;DHT22;22699;51.034;3.730;2023-05-10T02:45:47;14.50;99.90
36716;DHT22;22699;51.034;3.730;2023-05-10T02:48:13;14.60;99.90
36716;DHT22;22699;51.034;3.730;2023-05-10T02:50:44;14.60;99.90
36716;DHT22;22699;51.034;3.730;2023-05-10T02:53:14;14.70;99.90
36716;DHT22;22699;51.034;3.730;2023-05-10T02:55:41;14.60;99.90
36716;DHT22;22699;51.034;3.730;2023-05-10T02:58:08;14.60;99.90
36716;DHT22;22699;51.034;3.730;2023-05-10T03:00:56;14.50;99.90
36716;DHT22;22699;51.034;3.730;2023-05-10T03:03:25;14.60;99.90
36716;DHT22;22699;51.034;3.730;2023-05-10T03:05:51;14.60;99.90
36716;DHT22;22699;51.034;3.730;2023-05-10T03:17:34;14.60;99.90
36716;DHT22;22699;51.034;3.730;2023-05-10T03:20:08;14.60;99.90
36716;DHT22;22699;51.034;3.730;2023-05-10T03:22:43;14.60;99.90
36716;DHT22;22699;51.034;3.730;2023-05-10T03:25:11;14.60;99.90
36716;DHT22;22699;51.034;3.730;2023-05-10T03:27:40;14.50;99.90
36716;DHT22;22699;51.034;3.730;2023-05-10T03:30:10;14.50;99.90
36716;DHT22;22699;51.034;3.730;2023-05-10T03:32:38;14.60;99.90
36716;DHT22;22699;51.034;3.730;2023-05-10T03:35:12;14.70;99.90
36716;DHT22;22699;51.034;3.730;2023-05-10T03:37:41;14.70;99.90
36716;DHT22;22699;51.034;3.730;2023-05-10T03:40:08;14.80;99.90
36716;DHT22;22699;51.034;3.730;2023-05-10T03:42:38;14.90;99.90
36716;DHT22;22699;51.034;3.730;2023-05-10T03:45:05;15.00;99.90
36716;DHT22;22699;51.034;3.730;2023-05-10T03:47:34;14.90;99.90
36716;DHT22;22699;51.034;3.730;2023-05-10T03:50:00;14.80;99.90
36716;DHT22;22699;51.034;3.730;2023-05-10T03:52:28;14.70;99.90
36716;DHT22;22699;51.034;3.730;2023-05-10T03:54:53;14.70;99.90
36716;DHT22;22699;51.034;3.730;2023-05-10T03:57:22;15.00;99.90
36716;DHT22;22699;51.034;3.730;2023-05-10T03:59:50;14.90;99.90
36716;DHT22;22699;51.034;3.730;2023-05-10T04:02:16;14.80;99.90
36716;DHT22;22699;51.034;3.730;2023-05-10T04:04:44;14.90;99.90
36716;DHT22;22699;51.034;3.730;2023-05-10T04:07:11;14.80;99.90
36716;DHT22;22699;51.034;3.730;2023-05-10T04:09:43;14.90;99.90
36716;DHT22;22699;51.034;3.730;2023-05-10T04:12:08;14.80;99.90
36716;DHT22;22699;51.034;3.730;2023-05-10T04:14:35;14.90;99.90
36716;DHT22;22699;51.034;3.730;2023-05-10T04:17:02;14.80;99.90
36716;DHT22;22699;51.034;3.730;2023-05-10T04:19:32;14.80;99.90
36716;DHT22;22699;51.034;3.730;2023-05-10T04:22:05;14.90;99.90
36716;DHT22;22699;51.034;3.730;2023-05-10T04:24:32;15.00;99.90
36716;DHT22;22699;51.034;3.730;2023-05-10T04:26:59;15.00;99.90
36716;DHT22;22699;51.034;3.730;2023-05-10T04:29:29;15.00;99.90
36716;DHT22;22699;51.034;3.730;2023-05-10T04:31:56;14.90;99.90
36716;DHT22;22699;51.034;3.730;2023-05-10T04:34:24;14.80;99.90
36716;DHT22;22699;51.034;3.730;2023-05-10T04:36:49;14.90;99.90
36716;DHT22;22699;51.034;3.730;2023-05-10T04:39:18;15.00;99.90
36716;DHT22;22699;51.034;3.730;2023-05-10T04:41:44;15.00;99.90
36716;DHT22;22699;51.034;3.730;2023-05-10T04:44:10;15.00;99.90
36716;DHT22;22699;51.034;3.730;2023-05-10T04:46:37;15.00;99.90
36716;DHT22;22699;51.034;3.730;2023-05-10T04:49:04;15.00;99.90
36716;DHT22;22699;51.034;3.730;2023-05-10T04:51:29;15.10;99.90
36716;DHT22;22699;51.034;3.730;2023-05-10T04:53:56;15.40;99.90
36716;DHT22;22699;51.034;3.730;2023-05-10T04:56:24;15.10;99.90
36716;DHT22;22699;51.034;3.730;2023-05-10T04:58:57;14.90;99.90
36716;DHT22;22699;51.034;3.730;2023-05-10T05:01:29;14.90;99.90
36716;DHT22;22699;51.034;3.730;2023-05-10T05:03:56;14.90;99.90
36716;DHT22;22699;51.034;3.730;2023-05-10T05:06:24;15.00;99.90
36716;DHT22;22699;51.034;3.730;2023-05-10T05:08:50;15.10;99.90
36716;DHT22;22699;51.034;3.730;2023-05-10T05:11:17;15.00;99.90
36716;DHT22;22699;51.034;3.730;2023-05-10T05:13:45;15.10;99.90
36716;DHT22;22699;51.034;3.730;2023-05-10T05:16:14;15.20;99.90
36716;DHT22;22699;51.034;3.730;2023-05-10T05:18:41;15.20;99.90
36716;DHT22;22699;51.034;3.730;2023-05-10T05:21:16;15.30;99.90
36716;DHT22;22699;51.034;3.730;2023-05-10T05:23:42;15.30;99.90
36716;DHT22;22699;51.034;3.730;2023-05-10T05:26:15;15.40;99.90
36716;DHT22;22699;51.034;3.730;2023-05-10T05:28:44;15.30;99.90
36716;DHT22;22699;51.034;3.730;2023-05-10T05:31:10;15.40;99.90
36716;DHT22;22699;51.034;3.730;2023-05-10T05:33:37;15.60;99.90
36716;DHT22;22699;51.034;3.730;2023-05-10T05:36:04;15.50;99.90
36716;DHT22;22699;51.034;3.730;2023-05-10T05:38:30;15.40;99.90
36716;DHT22;22699;51.034;3.730;2023-05-10T05:40:59;15.50;99.90
36716;DHT22;22699;51.034;3.730;2023-05-10T05:43:40;15.20;99.90
36716;DHT22;22699;51.034;3.730;2023-05-10T05:49:17;15.00;99.90
36716;DHT22;22699;51.034;3.730;2023-05-10T05:51:44;15.10;99.90
36716;DHT22;22699;51.034;3.730;2023-05-10T05:54:11;15.30;99.90
36716;DHT22;22699;51.034;3.730;2023-05-10T05:56:39;15.40;99.90
36716;DHT22;22699;51.034;3.730;2023-05-10T05:59:05;14.90;99.90
36716;DHT22;22699;51.034;3.730;2023-05-10T06:01:33;14.60;99.90
36716;DHT22;22699;51.034;3.730;2023-05-10T06:04:01;14.40;99.90
36716;DHT22;22699;51.034;3.730;2023-05-10T06:06:26;14.80;99.90
36716;DHT22;22699;51.034;3.730;2023-05-10T06:08:53;14.90;99.90
36716;DHT22;22699;51.034;3.730;2023-05-10T06:11:21;15.00;99.90
36716;DHT22;22699;51.034;3.730;2023-05-10T06:13:55;15.30;99.90
36716;DHT22;22699;51.034;3.730;2023-05-10T06:16:23;15.40;99.90
36716;DHT22;22699;51.034;3.730;2023-05-10T06:18:56;15.20;99.90
36716;DHT22;22699;51.034;3.730;2023-05-10T06:21:23;15.20;99.90
36716;DHT22;22699;51.034;3.730;2023-05-10T06:23:50;15.30;99.90
36716;DHT22;22699;51.034;3.730;2023-05-10T06:26:16;15.20;99.90
36716;DHT22;22699;51.034;3.730;2023-05-10T06:28:42;15.10;99.90
36716;DHT22;22699;51.034;3.730;2023-05-10T06:31:08;15.50;99.90
36716;DHT22;22699;51.034;3.730;2023-05-10T06:33:34;15.40;99.90
36716;DHT22;22699;51.034;3.730;2023-05-10T06:36:00;15.30;99.90
36716;DHT22;22699;51.034;3.730;2023-05-10T06:38:27;15.50;99.90
36716;DHT22;22699;51.034;3.730;2023-05-10T06:40:55;15.40;99.90
36716;DHT22;22699;51.034;3.730;2023-05-10T06:43:27;15.30;99.90
36716;DHT22;22699;51.034;3.730;2023-05-10T06:45:55;15.20;99.90
36716;DHT22;22699;51.034;3.730;2023-05-10T06:48:23;15.10;99.90
36716;DHT22;22699;51.034;3.730;2023-05-10T06:50:49;14.90;99.90
36716;DHT22;22699;51.034;3.730;2023-05-10T06:53:15;14.80;99.90
36716;DHT22;22699;51.034;3.730;2023-05-10T06:55:40;14.70;99.90
36716;DHT22;22699;51.034;3.730;2023-05-10T06:58:06;14.60;99.90
36716;DHT22;22699;51.034;3.730;2023-05-10T07:00:32;14.60;99.90
36716;DHT22;22699;51.034;3.730;2023-05-10T07:02:58;14.60;99.90
36716;DHT22;22699;51.034;3.730;2023-05-10T07:05:24;14.70;99.90
36716;DHT22;22699;51.034;3.730;2023-05-10T07:07:49;14.90;99.90
36716;DHT22;22699;51.034;3.730;2023-05-10T07:10:15;15.00;99.90
36716;DHT22;22699;51.034;3.730;2023-05-10T07:12:41;15.00;99.90
36716;DHT22;22699;51.034;3.730;2023-05-10T07:15:08;15.10;99.90
36716;DHT22;22699;51.034;3.730;2023-05-10T07:17:34;15.20;99.90
36716;DHT22;22699;51.034;3.730;2023-05-10T07:19:59;15.10;99.90
36716;DHT22;22699;51.034;3.730;2023-05-10T07:22:25;15.10;99.90
36716;DHT22;22699;51.034;3.730;2023-05-10T07:24:51;15.00;99.90
36716;DHT22;22699;51.034;3.730;2023-05-10T07:27:17;14.90;99.90
36716;DHT22;22699;51.034;3.730;2023-05-10T07:29:42;14.90;99.90
36716;DHT22;22699;51.034;3.730;2023-05-10T07:32:08;14.80;99.90
36716;DHT22;22699;51.034;3.730;2023-05-10T07:34:36;14.80;99.90
36716;DHT22;22699;51.034;3.730;2023-05-10T07:37:01;14.80;99.90
36716;DHT22;22699;51.034;3.730;2023-05-10T07:39:27;14.90;99.90
36716;DHT22;22699;51.034;3.730;2023-05-10T07:41:54;14.80;99.90
36716;DHT22;22699;51.034;3.730;2023-05-10T07:44:21;14.70;99.90
36716;DHT22;22699;51.034;3.730;2023-05-10T07:46:47;14.90;99.90
36716;DHT22;22699;51.034;3.730;2023-05-10T07:49:13;14.90;99.90
36716;DHT22;22699;51.034;3.730;2023-05-10T07:51:39;14.90;99.90
36716;DHT22;22699;51.034;3.730;2023-05-10T07:54:05;14.90;99.90
36716;DHT22;22699;51.034;3.730;2023-05-10T07:56:32;15.10;99.90
36716;DHT22;22699;51.034;3.730;2023-05-10T07:59:02;15.10;99.90
36716;DHT22;22699;51.034;3.730;2023-05-10T08:01:33;15.30;99.90
36716;DHT22;22699;51.034;3.730;2023-05-10T08:04:00;15.20;99.90
36716;DHT22;22699;51.034;3.730;2023-05-10T08:06:26;15.10;99.90
36716;DHT22;22699;51.034;3.730;2023-05-10T08:08:53;15.10;99.90
36716;DHT22;22699;51.034;3.730;2023-05-10T08:11:22;15.10;99.90
36716;DHT22;22699;51.034;3.730;2023-05-10T08:13:49;15.10;99.90
36716;DHT22;22699;51.034;3.730;2023-05-10T08:16:16;15.10;99.90
36716;DHT22;22699;51.034;3.730;2023-05-10T08:18:43;15.20;99.90
36716;DHT22;22699;51.034;3.730;2023-05-10T08:21:11;15.40;99.90
36716;DHT22;22699;51.034;3.730;2023-05-10T08:23:37;15.60;99.90
36716;DHT22;22699;51.034;3.730;2023-05-10T08:26:03;15.60;99.90
36716;DHT22;22699;51.034;3.730;2023-05-10T08:28:28;15.70;99.90
36716;DHT22;22699;51.034;3.730;2023-05-10T08:30:54;15.50;99.90
36716;DHT22;22699;51.034;3.730;2023-05-10T08:33:20;15.60;99.90
36716;DHT22;22699;51.034;3.730;2023-05-10T08:35:45;15.70;99.90
36716;DHT22;22699;51.034;3.730;2023-05-10T08:38:11;15.70;99.90
36716;DHT22;22699;51.034;3.730;2023-05-10T08:40:41;15.70;99.90
36716;DHT22;22699;51.034;3.730;2023-05-10T08:43:09;15.70;99.90
36716;DHT22;22699;51.034;3.730;2023-05-10T08:45:38;15.40;99.90
36716;DHT22;22699;51.034;3.730;2023-05-10T08:48:09;15.50;99.90
36716;DHT22;22699;51.034;3.730;2023-05-10T08:50:37;15.70;99.90
36716;DHT22;22699;51.034;3.730;2023-05-10T08:53:11;15.70;99.90
36716;DHT22;22699;51.034;3.730;2023-05-10T08:55:38;15.60;99.90
36716;DHT22;22699;51.034;3.730;2023-05-10T08:58:06;15.50;99.90
36716;DHT22;22699;51.034;3.730;2023-05-10T09:00:33;15.40;99.90
36716;DHT22;22699;51.034;3.730;2023-05-10T09:03:00;15.60;99.90
36716;DHT22;22699;51.034;3.730;2023-05-10T09:05:28;15.60;99.90
36716;DHT22;22699;51.034;3.730;2023-05-10T09:07:55;15.60;99.90
36716;DHT22;22699;51.034;3.730;2023-05-10T09:10:26;15.40;99.90
36716;DHT22;22699;51.034;3.730;2023-05-10T09:12:53;15.40;99.90
36716;DHT22;22699;51.034;3.730;2023-05-10T09:15:22;15.30;99.90
36716;DHT22;22699;51.034;3.730;2023-05-10T09:17:50;15.30;99.90
36716;DHT22;22699;51.034;3.730;2023-05-10T09:20:18;15.30;99.90
36716;DHT22;22699;51.034;3.730;2023-05-10T09:22:45;15.50;99.90
36716;DHT22;22699;51.034;3.730;2023-05-10T09:25:15;15.70;99.90
36716;DHT22;22699;51.034;3.730;2023-05-10T09:27:56;15.80;99.90
36716;DHT22;22699;51.034;3.730;2023-05-10T09:30:26;15.70;99.90
36716;DHT22;22699;51.034;3.730;2023-05-10T09:32:55;15.90;99.90
36716;DHT22;22699;51.034;3.730;2023-05-10T09:35:31;16.10;99.90
36716;DHT22;22699;51.034;3.730;2023-05-10T09:38:02;16.00;99.90
36716;DHT22;22699;51.034;3.730;2023-05-10T09:40:34;16.30;99.90
36716;DHT22;22699;51.034;3.730;2023-05-10T09:43:05;16.50;99.90
36716;DHT22;22699;51.034;3.730;2023-05-10T09:45:41;16.60;99.90
36716;DHT22;22699;51.034;3.730;2023-05-10T09:48:18;17.20;99.90
36716;DHT22;22699;51.034;3.730;2023-05-10T09:50:57;17.40;99.90
36716;DHT22;22699;51.034;3.730;2023-05-10T09:53:26;17.70;99.90
36716;DHT22;22699;51.034;3.730;2023-05-10T09:55:59;18.10;99.90
36716;DHT22;22699;51.034;3.730;2023-05-10T09:58:27;18.20;99.90
36716;DHT22;22699;51.034;3.730;2023-05-10T10:00:57;18.40;99.90
36716;DHT22;22699;51.034;3.730;2023-05-10T10:03:26;18.60;99.90
36716;DHT22;22699;51.034;3.730;2023-05-10T10:05:51;18.40;99.90
36716;DHT22;22699;51.034;3.730;2023-05-10T10:08:18;18.50;99.90
36716;DHT22;22699;51.034;3.730;2023-05-10T10:10:52;18.60;99.90
36716;DHT22;22699;51.034;3.730;2023-05-10T10:13:23;18.60;99.90
36716;DHT22;22699;51.034;3.730;2023-05-10T10:15:53;18.40;99.90
36716;DHT22;22699;51.034;3.730;2023-05-10T10:18:21;18.40;99.90
36716;DHT22;22699;51.034;3.730;2023-05-10T10:21:07;18.00;99.90
36716;DHT22;22699;51.034;3.730;2023-05-10T10:23:37;18.30;99.90
36716;DHT22;22699;51.034;3.730;2023-05-10T10:26:08;18.40;99.90
36716;DHT22;22699;51.034;3.730;2023-05-10T10:34:46;18.90;99.90
36716;DHT22;22699;51.034;3.730;2023-05-10T10:37:13;19.00;99.90
36716;DHT22;22699;51.034;3.730;2023-05-10T10:39:48;19.20;99.90
36716;DHT22;22699;51.034;3.730;2023-05-10T10:45:41;19.30;99.90
36716;DHT22;22699;51.034;3.730;2023-05-10T10:48:28;19.40;99.90
36716;DHT22;22699;51.034;3.730;2023-05-10T10:50:58;19.40;99.90
36716;DHT22;22699;51.034;3.730;2023-05-10T10:53:28;19.30;99.90
36716;DHT22;22699;51.034;3.730;2023-05-10T10:56:11;19.50;99.90
36716;DHT22;22699;51.034;3.730;2023-05-10T10:58:49;19.20;99.90
36716;DHT22;22699;51.034;3.730;2023-05-10T11:01:22;18.80;99.90
36716;DHT22;22699;51.034;3.730;2023-05-10T11:06:37;18.80;99.90
36716;DHT22;22699;51.034;3.730;2023-05-10T11:09:13;18.60;99.90
36716;DHT22;22699;51.034;3.730;2023-05-10T11:11:52;18.80;99.90
36716;DHT22;22699;51.034;3.730;2023-05-10T11:14:21;18.50;99.90
36716;DHT22;22699;51.034;3.730;2023-05-10T11:16:51;18.70;99.90
36716;DHT22;22699;51.034;3.730;2023-05-10T11:19:17;18.50;99.90
36716;DHT22;22699;51.034;3.730;2023-05-10T11:24:37;17.50;99.90
36716;DHT22;22699;51.034;3.730;2023-05-10T11:27:03;17.10;99.90
36716;DHT22;22699;51.034;3.730;2023-05-10T11:29:30;16.90;99.90
36716;DHT22;22699;51.034;3.730;2023-05-10T11:32:00;16.70;99.90
36716;DHT22;22699;51.034;3.730;2023-05-10T11:34:30;16.70;99.90
36716;DHT22;22699;51.034;3.730;2023-05-10T11:37:02;16.70;99.90
36716;DHT22;22699;51.034;3.730;2023-05-10T11:39:34;16.90;99.90
36716;DHT22;22699;51.034;3.730;2023-05-10T11:42:13;16.80;99.90
36716;DHT22;22699;51.034;3.730;2023-05-10T11:44:40;16.60;99.90
36716;DHT22;22699;51.034;3.730;2023-05-10T11:47:06;16.70;99.90
36716;DHT22;22699;51.034;3.730;2023-05-10T11:49:33;16.90;99.90
36716;DHT22;22699;51.034;3.730;2023-05-10T11:52:11;17.10;99.90
36716;DHT22;22699;51.034;3.730;2023-05-10T11:54:57;17.10;99.90
36716;DHT22;22699;51.034;3.730;2023-05-10T11:57:38;17.10;99.90
36716;DHT22;22699;51.034;3.730;2023-05-10T12:00:13;17.50;99.90
36716;DHT22;22699;51.034;3.730;2023-05-10T12:02:39;17.60;99.90
36716;DHT22;22699;51.034;3.730;2023-05-10T12:05:10;18.00;99.90
36716;DHT22;22699;51.034;3.730;2023-05-10T12:07:36;18.30;99.90
36716;DHT22;22699;51.034;3.730;2023-05-10T12:10:27;18.70;99.90
36716;DHT22;22699;51.034;3.730;2023-05-10T12:13:23;18.90;99.90
36716;DHT22;22699;51.034;3.730;2023-05-10T12:16:19;19.10;99.90
36716;DHT22;22699;51.034;3.730;2023-05-10T12:18:48;18.90;99.90
36716;DHT22;22699;51.034;3.730;2023-05-10T12:21:15;18.90;99.90
36716;DHT22;22699;51.034;3.730;2023-05-10T12:23:42;18.30;99.90
36716;DHT22;22699;51.034;3.730;2023-05-10T12:26:11;18.20;99.90
36716;DHT22;22699;51.034;3.730;2023-05-10T12:28:37;18.30;99.90
36716;DHT22;22699;51.034;3.730;2023-05-10T12:31:03;18.60;99.90
36716;DHT22;22699;51.034;3.730;2023-05-10T12:33:41;18.80;99.90
36716;DHT22;22699;51.034;3.730;2023-05-10T12:36:11;18.70;99.90
36716;DHT22;22699;51.034;3.730;2023-05-10T12:38:44;18.70;99.90
36716;DHT22;22699;51.034;3.730;2023-05-10T12:41:16;18.70;99.90
36716;DHT22;22699;51.034;3.730;2023-05-10T12:43:44;18.40;99.90
36716;DHT22;22699;51.034;3.730;2023-05-10T12:46:17;18.30;99.90
36716;DHT22;22699;51.034;3.730;2023-05-10T12:48:44;18.20;99.90
36716;DHT22;22699;51.034;3.730;2023-05-10T12:51:11;18.20;99.90
36716;DHT22;22699;51.034;3.730;2023-05-10T12:53:39;18.00;99.90
36716;DHT22;22699;51.034;3.730;2023-05-10T12:56:07;17.80;99.90
36716;DHT22;22699;51.034;3.730;2023-05-10T12:58:34;18.00;99.90
36716;DHT22;22699;51.034;3.730;2023-05-10T13:01:00;17.90;99.90
36716;DHT22;22699;51.034;3.730;2023-05-10T13:03:29;17.60;99.90
36716;DHT22;22699;51.034;3.730;2023-05-10T13:05:57;17.60;99.90
36716;DHT22;22699;51.034;3.730;2023-05-10T13:08:33;17.50;99.90
36716;DHT22;22699;51.034;3.730;2023-05-10T13:11:02;17.20;99.90
36716;DHT22;22699;51.034;3.730;2023-05-10T13:13:28;16.80;99.90
36716;DHT22;22699;51.034;3.730;2023-05-10T13:15:55;16.80;99.90
36716;DHT22;22699;51.034;3.730;2023-05-10T13:18:20;16.80;99.90
36716;DHT22;22699;51.034;3.730;2023-05-10T13:20:46;16.60;99.90
36716;DHT22;22699;51.034;3.730;2023-05-10T13:23:12;16.40;99.90
36716;DHT22;22699;51.034;3.730;2023-05-10T13:25:40;16.40;99.90
36716;DHT22;22699;51.034;3.730;2023-05-10T13:28:07;16.40;99.90
36716;DHT22;22699;51.034;3.730;2023-05-10T13:30:32;16.20;99.90
36716;DHT22;22699;51.034;3.730;2023-05-10T13:32:58;16.10;99.90
36716;DHT22;22699;51.034;3.730;2023-05-10T13:35:24;16.10;99.90
36716;DHT22;22699;51.034;3.730;2023-05-10T13:37:49;16.10;99.90
36716;DHT22;22699;51.034;3.730;2023-05-10T13:40:15;16.10;99.90
36716;DHT22;22699;51.034;3.730;2023-05-10T13:42:41;16.10;99.90
36716;DHT22;22699;51.034;3.730;2023-05-10T13:45:07;16.20;99.90
36716;DHT22;22699;51.034;3.730;2023-05-10T13:47:34;16.20;99.90
36716;DHT22;22699;51.034;3.730;2023-05-10T13:50:00;16.10;99.90
36716;DHT22;22699;51.034;3.730;2023-05-10T13:52:26;16.00;99.90
36716;DHT22;22699;51.034;3.730;2023-05-10T13:54:52;16.10;99.90
36716;DHT22;22699;51.034;3.730;2023-05-10T13:57:20;16.20;99.90
36716;DHT22;22699;51.034;3.730;2023-05-10T13:59:45;16.30;99.90
36716;DHT22;22699;51.034;3.730;2023-05-10T14:02:11;16.40;99.90
36716;DHT22;22699;51.034;3.730;2023-05-10T14:04:39;16.40;99.90
36716;DHT22;22699;51.034;3.730;2023-05-10T14:07:05;16.30;99.90
36716;DHT22;22699;51.034;3.730;2023-05-10T14:09:32;16.40;99.90
36716;DHT22;22699;51.034;3.730;2023-05-10T14:12:00;16.30;99.90
36716;DHT22;22699;51.034;3.730;2023-05-10T14:14:26;16.30;99.90
36716;DHT22;22699;51.034;3.730;2023-05-10T14:16:51;16.40;99.90
36716;DHT22;22699;51.034;3.730;2023-05-10T14:19:18;16.50;99.90
36716;DHT22;22699;51.034;3.730;2023-05-10T14:21:48;16.70;99.90
36716;DHT22;22699;51.034;3.730;2023-05-10T14:24:14;16.60;99.90
36716;DHT22;22699;51.034;3.730;2023-05-10T14:26:42;16.60;99.90
36716;DHT22;22699;51.034;3.730;2023-05-10T14:29:07;16.50;99.90
36716;DHT22;22699;51.034;3.730;2023-05-10T14:31:36;16.50;99.90
36716;DHT22;22699;51.034;3.730;2023-05-10T14:34:02;16.70;99.90
36716;DHT22;22699;51.034;3.730;2023-05-10T14:36:29;16.80;99.90
36716;DHT22;22699;51.034;3.730;2023-05-10T14:38:54;16.90;99.90
36716;DHT22;22699;51.034;3.730;2023-05-10T14:41:21;17.10;99.90
36716;DHT22;22699;51.034;3.730;2023-05-10T14:43:50;17.30;99.90
36716;DHT22;22699;51.034;3.730;2023-05-10T14:46:15;17.50;99.90
36716;DHT22;22699;51.034;3.730;2023-05-10T14:48:41;17.70;99.90
36716;DHT22;22699;51.034;3.730;2023-05-10T14:51:09;17.90;99.90
36716;DHT22;22699;51.034;3.730;2023-05-10T14:53:34;18.20;99.90
36716;DHT22;22699;51.034;3.730;2023-05-10T14:56:01;18.20;99.90
36716;DHT22;22699;51.034;3.730;2023-05-10T14:58:29;18.40;99.90
36716;DHT22;22699;51.034;3.730;2023-05-10T15:00:56;18.60;99.90
36716;DHT22;22699;51.034;3.730;2023-05-10T15:03:22;18.70;99.90
36716;DHT22;22699;51.034;3.730;2023-05-10T15:05:48;18.70;99.90
36716;DHT22;22699;51.034;3.730;2023-05-10T15:08:14;18.70;99.90
36716;DHT22;22699;51.034;3.730;2023-05-10T15:10:43;18.70;99.90
36716;DHT22;22699;51.034;3.730;2023-05-10T15:13:10;18.60;99.90
36716;DHT22;22699;51.034;3.730;2023-05-10T15:15:39;18.60;99.90
36716;DHT22;22699;51.034;3.730;2023-05-10T15:18:08;18.90;99.90
36716;DHT22;22699;51.034;3.730;2023-05-10T15:20:37;19.00;99.90
36716;DHT22;22699;51.034;3.730;2023-05-10T15:23:04;18.90;99.90
36716;DHT22;22699;51.034;3.730;2023-05-10T15:25:31;18.80;99.90
36716;DHT22;22699;51.034;3.730;2023-05-10T15:28:04;19.00;99.90
36716;DHT22;22699;51.034;3.730;2023-05-10T15:30:30;18.90;99.90
36716;DHT22;22699;51.034;3.730;2023-05-10T15:33:16;18.80;99.90
36716;DHT22;22699;51.034;3.730;2023-05-10T15:35:49;18.70;99.90
36716;DHT22;22699;51.034;3.730;2023-05-10T15:38:23;18.50;99.90
36716;DHT22;22699;51.034;3.730;2023-05-10T15:40:49;18.50;99.90
36716;DHT22;22699;51.034;3.730;2023-05-10T15:43:21;18.50;99.90
36716;DHT22;22699;51.034;3.730;2023-05-10T15:46:04;18.50;99.90
36716;DHT22;22699;51.034;3.730;2023-05-10T15:48:31;18.60;99.90
36716;DHT22;22699;51.034;3.730;2023-05-10T15:54:18;18.90;99.90
36716;DHT22;22699;51.034;3.730;2023-05-10T15:56:47;18.70;99.90
36716;DHT22;22699;51.034;3.730;2023-05-10T15:59:38;18.70;99.90
36716;DHT22;22699;51.034;3.730;2023-05-10T16:05:02;18.70;99.90
36716;DHT22;22699;51.034;3.730;2023-05-10T17:22:36;18.90;99.70
36716;DHT22;22699;51.034;3.730;2023-05-10T17:25:02;18.80;99.90
36716;DHT22;22699;51.034;3.730;2023-05-10T17:27:28;18.70;99.90
36716;DHT22;22699;51.034;3.730;2023-05-10T17:30:01;18.60;99.90
36716;DHT22;22699;51.034;3.730;2023-05-10T17:32:30;18.70;99.90
36716;DHT22;22699;51.034;3.730;2023-05-10T17:35:00;18.80;99.90
36716;DHT22;22699;51.034;3.730;2023-05-10T17:37:31;18.70;99.90
36716;DHT22;22699;51.034;3.730;2023-05-10T17:40:28;18.60;99.90
36716;DHT22;22699;51.034;3.730;2023-05-10T17:43:01;18.30;99.90